sensor_id;sensor_type;location;lat;lon;timestamp;pressure;altitude;pressure_sealevel;temperature;humidity
19023;BME280;35226;48.606;8.858;2022-12-18T00:00:32;97252.28;;;-13.29;100.00
19023;BME280;35226;48.606;8.858;2022-12-18T00:02:58;97252.28;;;-13.29;100.00
19023;BME280;35226;48.606;8.858;2022-12-18T00:05:23;97257.59;;;-13.14;100.00
19023;BME280;35226;48.606;8.858;2022-12-18T00:07:49;97253.06;;;-13.19;100.00
19023;BME280;35226;48.606;8.858;2022-12-18T00:10:18;97250.88;;;-13.06;100.00
19023;BME280;35226;48.606;8.858;2022-12-18T00:12:43;97253.34;;;-13.51;100.00
19023;BME280;35226;48.606;8.858;2022-12-18T00:15:09;97247.53;;;-13.42;100.00
19023;BME280;35226;48.606;8.858;2022-12-18T00:17:34;97256.53;;;-13.59;100.00
19023;BME280;35226;48.606;8.858;2022-12-18T00:20:00;97260.50;;;-13.31;100.00
19023;BME280;35226;48.606;8.858;2022-12-18T00:22:25;97264.50;;;-13.18;100.00
19023;BME280;35226;48.606;8.858;2022-12-18T00:24:51;97268.75;;;-13.58;100.00
19023;BME280;35226;48.606;8.858;2022-12-18T00:27:16;97274.09;;;-13.22;100.00
19023;BME280;35226;48.606;8.858;2022-12-18T00:29:42;97274.09;;;-13.48;100.00
19023;BME280;35226;48.606;8.858;2022-12-18T00:32:07;97273.00;;;-13.77;100.00
19023;BME280;35226;48.606;8.858;2022-12-18T00:34:33;97271.16;;;-13.81;100.00
19023;BME280;35226;48.606;8.858;2022-12-18T00:36:58;97273.03;;;-13.52;100.00
19023;BME280;35226;48.606;8.858;2022-12-18T00:39:24;97273.56;;;-13.44;100.00
19023;BME280;35226;48.606;8.858;2022-12-18T00:41:49;97266.38;;;-13.49;100.00
19023;BME280;35226;48.606;8.858;2022-12-18T00:44:33;97269.81;;;-13.38;100.00
19023;BME280;35226;48.606;8.858;2022-12-18T00:46:59;97270.09;;;-13.35;100.00
19023;BME280;35226;48.606;8.858;2022-12-18T00:49:25;97263.72;;;-13.44;100.00
19023;BME280;35226;48.606;8.858;2022-12-18T00:51:50;97266.91;;;-13.47;100.00
19023;BME280;35226;48.606;8.858;2022-12-18T00:54:16;97265.06;;;-13.57;100.00
19023;BME280;35226;48.606;8.858;2022-12-18T00:56:43;97270.63;;;-13.53;100.00
19023;BME280;35226;48.606;8.858;2022-12-18T00:59:09;97271.41;;;-13.58;100.00
19023;BME280;35226;48.606;8.858;2022-12-18T01:01:34;97272.25;;;-13.52;100.00
19023;BME280;35226;48.606;8.858;2022-12-18T01:04:02;97277.28;;;-13.56;100.00
19023;BME280;35226;48.606;8.858;2022-12-18T01:06:28;97273.03;;;-13.52;100.00
19023;BME280;35226;48.606;8.858;2022-12-18T01:08:54;97276.47;;;-13.46;100.00
19023;BME280;35226;48.606;8.858;2022-12-18T01:11:21;97270.38;;;-13.52;100.00
19023;BME280;35226;48.606;8.858;2022-12-18T01:13:47;97272.50;;;-13.64;100.00
19023;BME280;35226;48.606;8.858;2022-12-18T01:16:14;97275.94;;;-13.48;100.00
19023;BME280;35226;48.606;8.858;2022-12-18T01:18:41;97271.16;;;-13.46;100.00
19023;BME280;35226;48.606;8.858;2022-12-18T01:21:12;97271.69;;;-13.39;100.00
19023;BME280;35226;48.606;8.858;2022-12-18T01:23:38;97270.09;;;-13.75;100.00
19023;BME280;35226;48.606;8.858;2022-12-18T01:26:08;97273.22;;;-13.99;100.00
19023;BME280;35226;48.606;8.858;2022-12-18T01:28:35;97277.22;;;-14.06;100.00
19023;BME280;35226;48.606;8.858;2022-12-18T01:31:17;97268.97;;;-14.10;100.00
19023;BME280;35226;48.606;8.858;2022-12-18T01:33:44;97278.47;;;-14.29;100.00
19023;BME280;35226;48.606;8.858;2022-12-18T01:36:21;97275.03;;;-14.19;100.00
19023;BME280;35226;48.606;8.858;2022-12-18T01:38:48;97276.97;;;-13.95;100.00
19023;BME280;35226;48.606;8.858;2022-12-18T01:41:16;97282.31;;;-13.74;100.00
19023;BME280;35226;48.606;8.858;2022-12-18T01:43:48;97294.75;;;-14.10;100.00
19023;BME280;35226;48.606;8.858;2022-12-18T01:46:15;97296.06;;;-13.98;100.00
19023;BME280;35226;48.606;8.858;2022-12-18T01:48:42;97286.31;;;-13.72;100.00
19023;BME280;35226;48.606;8.858;2022-12-18T01:51:09;97277.56;;;-13.62;100.00
19023;BME280;35226;48.606;8.858;2022-12-18T01:53:37;97274.91;;;-13.62;100.00
19023;BME280;35226;48.606;8.858;2022-12-18T01:56:04;97278.34;;;-13.57;100.00
19023;BME280;35226;48.606;8.858;2022-12-18T01:58:58;97286.53;;;-13.78;100.00
19023;BME280;35226;48.606;8.858;2022-12-18T02:01:30;97281.53;;;-13.50;100.00
19023;BME280;35226;48.606;8.858;2022-12-18T02:06:45;97281.53;;;-13.50;100.00
19023;BME280;35226;48.606;8.858;2022-12-18T02:09:15;97277.28;;;-13.45;100.00
19023;BME280;35226;48.606;8.858;2022-12-18T02:11:56;97285.50;;;-13.27;100.00
19023;BME280;35226;48.606;8.858;2022-12-18T02:14:42;97282.31;;;-13.29;100.00
19023;BME280;35226;48.606;8.858;2022-12-18T02:17:17;97285.25;;;-13.25;100.00
19023;BME280;35226;48.606;8.858;2022-12-18T02:24:53;97278.00;;;-12.99;100.00
19023;BME280;35226;48.606;8.858;2022-12-18T02:27:21;97277.47;;;-13.06;100.00
19023;BME280;35226;48.606;8.858;2022-12-18T02:29:53;97281.22;;;-13.02;100.00
19023;BME280;35226;48.606;8.858;2022-12-18T02:32:25;97288.09;;;-12.96;100.00
19023;BME280;35226;48.606;8.858;2022-12-18T02:34:54;97285.41;;;-12.86;100.00
19023;BME280;35226;48.606;8.858;2022-12-18T02:37:23;97287.31;;;-12.97;100.00
19023;BME280;35226;48.606;8.858;2022-12-18T02:39:54;97289.13;;;-12.82;100.00
19023;BME280;35226;48.606;8.858;2022-12-18T02:42:22;97295.22;;;-12.66;100.00
19023;BME280;35226;48.606;8.858;2022-12-18T02:44:50;97292.31;;;-12.75;100.00
19023;BME280;35226;48.606;8.858;2022-12-18T02:47:23;97295.50;;;-12.73;100.00
19023;BME280;35226;48.606;8.858;2022-12-18T02:53:03;97283.81;;;-12.82;100.00
19023;BME280;35226;48.606;8.858;2022-12-18T03:03:51;97282.16;;;-12.58;100.00
19023;BME280;35226;48.606;8.858;2022-12-18T03:06:25;97287.97;;;-12.51;100.00
19023;BME280;35226;48.606;8.858;2022-12-18T03:09:00;97285.00;;;-12.39;100.00
19023;BME280;35226;48.606;8.858;2022-12-18T03:11:33;97291.09;;;-12.33;100.00
19023;BME280;35226;48.606;8.858;2022-12-18T03:14:20;97294.06;;;-12.35;100.00
19023;BME280;35226;48.606;8.858;2022-12-18T03:16:51;97300.63;;;-12.22;100.00
19023;BME280;35226;48.606;8.858;2022-12-18T03:19:21;97298.50;;;-12.15;100.00
19023;BME280;35226;48.606;8.858;2022-12-18T03:21:54;97304.31;;;-12.08;100.00
19023;BME280;35226;48.606;8.858;2022-12-18T03:24:23;97303.50;;;-12.09;100.00
19023;BME280;35226;48.606;8.858;2022-12-18T03:26:55;97291.53;;;-12.11;100.00
19023;BME280;35226;48.606;8.858;2022-12-18T03:29:33;97295.84;;;-12.15;100.00
19023;BME280;35226;48.606;8.858;2022-12-18T03:32:15;97298.41;;;-12.00;100.00
19023;BME280;35226;48.606;8.858;2022-12-18T03:34:44;97302.13;;;-11.96;100.00
19023;BME280;35226;48.606;8.858;2022-12-18T03:37:14;97289.56;;;-11.90;100.00
19023;BME280;35226;48.606;8.858;2022-12-18T03:39:40;97291.94;;;-11.89;100.00
19023;BME280;35226;48.606;8.858;2022-12-18T03:42:16;97292.75;;;-11.88;100.00
19023;BME280;35226;48.606;8.858;2022-12-18T03:47:35;97298.53;;;-11.76;100.00
19023;BME280;35226;48.606;8.858;2022-12-18T03:52:55;97290.22;;;-11.70;100.00
19023;BME280;35226;48.606;8.858;2022-12-18T03:55:25;97278.16;;;-11.62;100.00
19023;BME280;35226;48.606;8.858;2022-12-18T03:57:58;97277.34;;;-11.57;100.00
19023;BME280;35226;48.606;8.858;2022-12-18T04:00:33;97285.75;;;-11.45;100.00
19023;BME280;35226;48.606;8.858;2022-12-18T04:03:07;97297.19;;;-11.40;100.00
19023;BME280;35226;48.606;8.858;2022-12-18T04:05:43;97289.44;;;-11.36;100.00
19023;BME280;35226;48.606;8.858;2022-12-18T04:08:10;97296.31;;;-11.30;100.00
19023;BME280;35226;48.606;8.858;2022-12-18T04:10:40;97277.38;;;-11.29;100.00
19023;BME280;35226;48.606;8.858;2022-12-18T04:13:06;97278.63;;;-11.21;100.00
19023;BME280;35226;48.606;8.858;2022-12-18T04:15:34;97280.78;;;-11.23;100.00
19023;BME280;35226;48.606;8.858;2022-12-18T04:18:02;97285.28;;;-11.18;100.00
19023;BME280;35226;48.606;8.858;2022-12-18T04:20:35;97289.50;;;-11.12;100.00
19023;BME280;35226;48.606;8.858;2022-12-18T04:23:02;97291.84;;;-11.06;100.00
19023;BME280;35226;48.606;8.858;2022-12-18T04:25:28;97295.03;;;-11.04;100.00
19023;BME280;35226;48.606;8.858;2022-12-18T04:28:05;97299.47;;;-10.94;100.00
19023;BME280;35226;48.606;8.858;2022-12-18T04:30:32;97295.03;;;-11.04;100.00
19023;BME280;35226;48.606;8.858;2022-12-18T04:32:58;97277.56;;;-10.91;100.00
19023;BME280;35226;48.606;8.858;2022-12-18T04:35:23;97274.28;;;-10.83;100.00
19023;BME280;35226;48.606;8.858;2022-12-18T04:37:49;97273.19;;;-10.82;100.00
19023;BME280;35226;48.606;8.858;2022-12-18T04:40:15;97265.03;;;-10.91;100.00
19023;BME280;35226;48.606;8.858;2022-12-18T04:42:44;97267.81;;;-10.77;100.00
19023;BME280;35226;48.606;8.858;2022-12-18T04:45:10;97275.22;;;-10.69;100.00
19023;BME280;35226;48.606;8.858;2022-12-18T04:47:35;97268.72;;;-10.63;100.00
19023;BME280;35226;48.606;8.858;2022-12-18T04:50:01;97262.06;;;-10.89;100.00
19023;BME280;35226;48.606;8.858;2022-12-18T04:52:27;97260.69;;;-10.87;100.00
19023;BME280;35226;48.606;8.858;2022-12-18T04:54:53;97264.53;;;-10.69;100.00
19023;BME280;35226;48.606;8.858;2022-12-18T04:57:18;97271.69;;;-10.64;100.00
19023;BME280;35226;48.606;8.858;2022-12-18T04:59:44;97277.81;;;-10.64;100.00
19023;BME280;35226;48.606;8.858;2022-12-18T05:02:10;97278.25;;;-10.57;100.00
19023;BME280;35226;48.606;8.858;2022-12-18T05:04:35;97279.97;;;-10.90;100.00
19023;BME280;35226;48.606;8.858;2022-12-18T05:07:01;97279.78;;;-10.74;100.00
19023;BME280;35226;48.606;8.858;2022-12-18T05:09:26;97281.03;;;-10.67;100.00
19023;BME280;35226;48.606;8.858;2022-12-18T05:11:52;97277.81;;;-10.88;100.00
19023;BME280;35226;48.606;8.858;2022-12-18T05:14:17;97276.22;;;-10.65;100.00
19023;BME280;35226;48.606;8.858;2022-12-18T05:16:43;97277.28;;;-10.66;100.00
19023;BME280;35226;48.606;8.858;2022-12-18T05:19:08;97285.09;;;-10.69;100.00
19023;BME280;35226;48.606;8.858;2022-12-18T05:21:34;97279.66;;;-10.59;100.00
19023;BME280;35226;48.606;8.858;2022-12-18T05:23:59;97270.94;;;-10.46;100.00
19023;BME280;35226;48.606;8.858;2022-12-18T05:26:25;97269.75;;;-10.59;100.00
19023;BME280;35226;48.606;8.858;2022-12-18T05:28:50;97281.03;;;-10.67;100.00
19023;BME280;35226;48.606;8.858;2022-12-18T05:31:16;97287.06;;;-10.56;100.00
19023;BME280;35226;48.606;8.858;2022-12-18T05:33:41;97283.59;;;-10.57;100.00
19023;BME280;35226;48.606;8.858;2022-12-18T05:36:08;97279.84;;;-10.56;100.00
19023;BME280;35226;48.606;8.858;2022-12-18T05:38:36;97271.84;;;-10.56;100.00
19023;BME280;35226;48.606;8.858;2022-12-18T05:41:03;97272.00;;;-10.95;100.00
19023;BME280;35226;48.606;8.858;2022-12-18T05:43:29;97277.28;;;-10.90;100.00
19023;BME280;35226;48.606;8.858;2022-12-18T05:45:55;97270.25;;;-10.80;100.00
19023;BME280;35226;48.606;8.858;2022-12-18T05:48:21;97274.00;;;-10.81;100.00
19023;BME280;35226;48.606;8.858;2022-12-18T05:50:49;97271.69;;;-10.64;100.00
19023;BME280;35226;48.606;8.858;2022-12-18T05:53:17;97264.25;;;-10.67;100.00
19023;BME280;35226;48.606;8.858;2022-12-18T05:55:43;97270.25;;;-10.57;100.00
19023;BME280;35226;48.606;8.858;2022-12-18T05:58:10;97272.59;;;-10.74;100.00
19023;BME280;35226;48.606;8.858;2022-12-18T06:00:38;97281.38;;;-10.73;100.00
19023;BME280;35226;48.606;8.858;2022-12-18T06:03:08;97278.22;;;-10.52;100.00
19023;BME280;35226;48.606;8.858;2022-12-18T06:05:43;97284.13;;;-10.55;100.00
19023;BME280;35226;48.606;8.858;2022-12-18T06:08:09;97283.41;;;-10.60;100.00
19023;BME280;35226;48.606;8.858;2022-12-18T06:10:36;97282.75;;;-10.76;100.00
19023;BME280;35226;48.606;8.858;2022-12-18T06:13:02;97299.78;;;-10.72;100.00
19023;BME280;35226;48.606;8.858;2022-12-18T06:15:28;97305.47;;;-10.78;100.00
19023;BME280;35226;48.606;8.858;2022-12-18T06:17:53;97304.34;;;-10.72;100.00
19023;BME280;35226;48.606;8.858;2022-12-18T06:20:19;97309.44;;;-10.76;100.00
19023;BME280;35226;48.606;8.858;2022-12-18T06:22:45;97313.00;;;-10.86;100.00
19023;BME280;35226;48.606;8.858;2022-12-18T06:25:11;97311.66;;;-10.83;100.00
19023;BME280;35226;48.606;8.858;2022-12-18T06:27:36;97314.84;;;-10.81;100.00
19023;BME280;35226;48.606;8.858;2022-12-18T06:30:02;97326.34;;;-10.86;100.00
19023;BME280;35226;48.606;8.858;2022-12-18T06:32:28;97320.81;;;-10.94;100.00
19023;BME280;35226;48.606;8.858;2022-12-18T06:34:53;97319.19;;;-10.90;100.00
19023;BME280;35226;48.606;8.858;2022-12-18T06:37:21;97327.75;;;-10.93;100.00
19023;BME280;35226;48.606;8.858;2022-12-18T06:39:46;97327.75;;;-10.93;100.00
19023;BME280;35226;48.606;8.858;2022-12-18T06:42:12;97329.97;;;-11.05;100.00
19023;BME280;35226;48.606;8.858;2022-12-18T06:44:37;97331.06;;;-11.06;100.00
19023;BME280;35226;48.606;8.858;2022-12-18T06:47:03;97331.84;;;-11.06;100.00
19023;BME280;35226;48.606;8.858;2022-12-18T06:49:28;97332.97;;;-11.12;100.00
19023;BME280;35226;48.606;8.858;2022-12-18T06:51:54;97331.50;;;-11.28;100.00
19023;BME280;35226;48.606;8.858;2022-12-18T06:54:20;97334.91;;;-11.17;100.00
19023;BME280;35226;48.606;8.858;2022-12-18T06:56:45;97336.97;;;-11.09;100.00
19023;BME280;35226;48.606;8.858;2022-12-18T06:59:13;97346.66;;;-11.24;100.00
19023;BME280;35226;48.606;8.858;2022-12-18T07:01:38;97355.06;;;-11.40;100.00
19023;BME280;35226;48.606;8.858;2022-12-18T07:04:04;97347.47;;;-11.23;100.00
19023;BME280;35226;48.606;8.858;2022-12-18T07:06:29;97354.38;;;-11.22;100.00
19023;BME280;35226;48.606;8.858;2022-12-18T07:08:55;97351.97;;;-11.18;100.00
19023;BME280;35226;48.606;8.858;2022-12-18T07:11:21;97362.13;;;-11.20;100.00
19023;BME280;35226;48.606;8.858;2022-12-18T07:13:47;97360.25;;;-11.59;100.00
19023;BME280;35226;48.606;8.858;2022-12-18T07:16:15;97361.78;;;-11.53;100.00
19023;BME280;35226;48.606;8.858;2022-12-18T07:18:41;97360.13;;;-11.39;100.00
19023;BME280;35226;48.606;8.858;2022-12-18T07:21:09;97359.06;;;-11.43;100.00
19023;BME280;35226;48.606;8.858;2022-12-18T07:23:35;97364.72;;;-11.54;100.00
19023;BME280;35226;48.606;8.858;2022-12-18T07:26:08;97367.97;;;-11.57;100.00
19023;BME280;35226;48.606;8.858;2022-12-18T07:28:35;97362.00;;;-11.44;100.00
19023;BME280;35226;48.606;8.858;2022-12-18T07:31:08;97357.84;;;-11.61;100.00
19023;BME280;35226;48.606;8.858;2022-12-18T07:33:35;97358.06;;;-11.52;100.00
19023;BME280;35226;48.606;8.858;2022-12-18T07:36:01;97350.97;;;-11.67;100.00
19023;BME280;35226;48.606;8.858;2022-12-18T07:38:28;97350.66;;;-11.60;100.00
19023;BME280;35226;48.606;8.858;2022-12-18T07:40:54;97355.97;;;-11.60;100.00
19023;BME280;35226;48.606;8.858;2022-12-18T07:43:19;97350.56;;;-11.89;100.00
19023;BME280;35226;48.606;8.858;2022-12-18T07:45:45;97356.66;;;-11.78;100.00
19023;BME280;35226;48.606;8.858;2022-12-18T07:48:10;97361.63;;;-11.72;100.00
19023;BME280;35226;48.606;8.858;2022-12-18T07:50:37;97363.78;;;-11.74;100.00
19023;BME280;35226;48.606;8.858;2022-12-18T07:53:02;97367.56;;;-11.80;100.00
19023;BME280;35226;48.606;8.858;2022-12-18T07:55:31;97374.59;;;-12.04;100.00
19023;BME280;35226;48.606;8.858;2022-12-18T07:57:56;97377.53;;;-12.01;100.00
19023;BME280;35226;48.606;8.858;2022-12-18T08:00:22;97374.84;;;-11.95;100.00
19023;BME280;35226;48.606;8.858;2022-12-18T08:02:48;97385.22;;;-11.94;100.00
19023;BME280;35226;48.606;8.858;2022-12-18T08:05:13;97370.44;;;-11.71;100.00
19023;BME280;35226;48.606;8.858;2022-12-18T08:07:39;97370.69;;;-11.73;100.00
19023;BME280;35226;48.606;8.858;2022-12-18T08:10:05;97381.16;;;-11.81;100.00
19023;BME280;35226;48.606;8.858;2022-12-18T08:12:31;97375.53;;;-11.75;100.00
19023;BME280;35226;48.606;8.858;2022-12-18T08:14:57;97374.16;;;-11.72;100.00
19023;BME280;35226;48.606;8.858;2022-12-18T08:17:22;97379.06;;;-11.94;100.00
19023;BME280;35226;48.606;8.858;2022-12-18T08:19:48;97367.75;;;-11.71;100.00
19023;BME280;35226;48.606;8.858;2022-12-18T08:22:14;97380.63;;;-11.78;100.00
19023;BME280;35226;48.606;8.858;2022-12-18T08:24:39;97389.41;;;-11.78;100.00
19023;BME280;35226;48.606;8.858;2022-12-18T08:27:05;97389.34;;;-11.73;100.00
19023;BME280;35226;48.606;8.858;2022-12-18T08:29:30;97379.81;;;-11.79;100.00
19023;BME280;35226;48.606;8.858;2022-12-18T08:31:57;97379.84;;;-11.84;100.00
19023;BME280;35226;48.606;8.858;2022-12-18T08:34:23;97379.22;;;-11.66;100.00
19023;BME280;35226;48.606;8.858;2022-12-18T08:36:48;97379.47;;;-11.67;100.00
19023;BME280;35226;48.606;8.858;2022-12-18T08:39:14;97379.28;;;-11.76;100.00
19023;BME280;35226;48.606;8.858;2022-12-18T08:41:40;97381.03;;;-11.61;100.00
19023;BME280;35226;48.606;8.858;2022-12-18T08:44:07;97378.34;;;-11.56;100.00
19023;BME280;35226;48.606;8.858;2022-12-18T08:47:08;97367.97;;;-11.57;100.00
19023;BME280;35226;48.606;8.858;2022-12-18T08:49:34;97365.25;;;-11.52;100.00
19023;BME280;35226;48.606;8.858;2022-12-18T08:52:00;97357.75;;;-11.45;100.00
19023;BME280;35226;48.606;8.858;2022-12-18T08:54:26;97365.13;;;-11.32;100.00
19023;BME280;35226;48.606;8.858;2022-12-18T08:56:52;97365.84;;;-11.22;100.00
19023;BME280;35226;48.606;8.858;2022-12-18T08:59:18;97362.59;;;-11.13;100.00
19023;BME280;35226;48.606;8.858;2022-12-18T09:01:44;97366.53;;;-11.06;100.00
19023;BME280;35226;48.606;8.858;2022-12-18T09:04:10;97364.03;;;-10.92;100.00
19023;BME280;35226;48.606;8.858;2022-12-18T09:06:36;97360.56;;;-10.93;100.00
19023;BME280;35226;48.606;8.858;2022-12-18T09:09:03;97357.00;;;-10.78;100.00
19023;BME280;35226;48.606;8.858;2022-12-18T09:11:30;97355.78;;;-10.67;100.00
19023;BME280;35226;48.606;8.858;2022-12-18T09:13:56;97358.44;;;-10.62;100.00
19023;BME280;35226;48.606;8.858;2022-12-18T09:16:24;97347.31;;;-10.45;100.00
19023;BME280;35226;48.606;8.858;2022-12-18T09:18:49;97356.88;;;-10.39;100.00
19023;BME280;35226;48.606;8.858;2022-12-18T09:21:17;97357.88;;;-10.35;100.00
19023;BME280;35226;48.606;8.858;2022-12-18T09:23:43;97350.28;;;-10.23;100.00
19023;BME280;35226;48.606;8.858;2022-12-18T09:26:10;97350.94;;;-10.12;100.00
19023;BME280;35226;48.606;8.858;2022-12-18T09:28:36;97350.84;;;-10.07;100.00
19023;BME280;35226;48.606;8.858;2022-12-18T09:31:06;97345.00;;;-9.85;100.00
19023;BME280;35226;48.606;8.858;2022-12-18T09:33:34;97355.13;;;-9.63;100.00
19023;BME280;35226;48.606;8.858;2022-12-18T09:36:01;97345.53;;;-9.46;100.00
19023;BME280;35226;48.606;8.858;2022-12-18T09:38:27;97345.81;;;-9.28;100.00
19023;BME280;35226;48.606;8.858;2022-12-18T09:40:57;97342.75;;;-9.03;100.00
19023;BME280;35226;48.606;8.858;2022-12-18T09:43:29;97344.34;;;-9.02;100.00
19023;BME280;35226;48.606;8.858;2022-12-18T09:46:01;97346.28;;;-9.08;100.00
19023;BME280;35226;48.606;8.858;2022-12-18T09:48:35;97334.41;;;-8.83;100.00
19023;BME280;35226;48.606;8.858;2022-12-18T09:51:27;97345.34;;;-8.66;100.00
19023;BME280;35226;48.606;8.858;2022-12-18T09:53:58;97352.72;;;-8.57;100.00
19023;BME280;35226;48.606;8.858;2022-12-18T09:56:28;97336.84;;;-8.40;100.00
19023;BME280;35226;48.606;8.858;2022-12-18T09:59:02;97332.69;;;-8.05;100.00
19023;BME280;35226;48.606;8.858;2022-12-18T10:01:29;97340.13;;;-7.89;100.00
19023;BME280;35226;48.606;8.858;2022-12-18T10:03:56;97345.88;;;-7.81;100.00
19023;BME280;35226;48.606;8.858;2022-12-18T10:06:32;97344.28;;;-7.55;100.00
19023;BME280;35226;48.606;8.858;2022-12-18T10:09:06;97349.00;;;-7.38;100.00
19023;BME280;35226;48.606;8.858;2022-12-18T10:19:52;97333.31;;;-6.87;100.00
19023;BME280;35226;48.606;8.858;2022-12-18T10:22:30;97346.75;;;-6.56;100.00
19023;BME280;35226;48.606;8.858;2022-12-18T10:27:39;97340.75;;;-6.30;100.00
19023;BME280;35226;48.606;8.858;2022-12-18T10:30:14;97327.16;;;-6.25;100.00
19023;BME280;35226;48.606;8.858;2022-12-18T10:32:40;97326.31;;;-6.04;100.00
19023;BME280;35226;48.606;8.858;2022-12-18T10:35:30;97329.78;;;-6.03;100.00
19023;BME280;35226;48.606;8.858;2022-12-18T10:40:25;97339.97;;;-5.91;100.00
19023;BME280;35226;48.606;8.858;2022-12-18T10:43:14;97336.38;;;-5.70;100.00
19023;BME280;35226;48.606;8.858;2022-12-18T10:45:40;97335.59;;;-5.62;100.00
19023;BME280;35226;48.606;8.858;2022-12-18T10:48:18;97323.72;;;-5.61;100.00
19023;BME280;35226;48.606;8.858;2022-12-18T10:50:48;97320.91;;;-5.30;100.00
19023;BME280;35226;48.606;8.858;2022-12-18T10:53:20;97315.81;;;-5.48;100.00
19023;BME280;35226;48.606;8.858;2022-12-18T10:55:47;97317.06;;;-5.37;100.00
19023;BME280;35226;48.606;8.858;2022-12-18T10:58:23;97312.84;;;-5.21;100.00
19023;BME280;35226;48.606;8.858;2022-12-18T11:03:39;97314.88;;;-4.92;100.00
19023;BME280;35226;48.606;8.858;2022-12-18T11:06:11;97307.44;;;-5.21;100.00
19023;BME280;35226;48.606;8.858;2022-12-18T11:08:37;97303.31;;;-5.10;100.00
19023;BME280;35226;48.606;8.858;2022-12-18T11:11:04;97304.25;;;-4.89;100.00
19023;BME280;35226;48.606;8.858;2022-12-18T11:13:32;97307.59;;;-4.92;100.00
19023;BME280;35226;48.606;8.858;2022-12-18T11:15:59;97301.88;;;-4.99;100.00
19023;BME280;35226;48.606;8.858;2022-12-18T11:18:34;97300.59;;;-4.84;100.00
19023;BME280;35226;48.606;8.858;2022-12-18T11:21:08;97302.66;;;-4.90;100.00
19023;BME280;35226;48.606;8.858;2022-12-18T11:23:36;97306.94;;;-4.89;100.00
19023;BME280;35226;48.606;8.858;2022-12-18T11:26:04;97298.22;;;-4.86;100.00
19023;BME280;35226;48.606;8.858;2022-12-18T11:36:37;97294.00;;;-4.49;100.00
19023;BME280;35226;48.606;8.858;2022-12-18T11:39:37;97274.47;;;-4.37;100.00
19023;BME280;35226;48.606;8.858;2022-12-18T11:44:42;97278.16;;;-4.41;100.00
19023;BME280;35226;48.606;8.858;2022-12-18T11:49:51;97270.91;;;-4.12;100.00
19023;BME280;35226;48.606;8.858;2022-12-18T11:52:24;97269.22;;;-3.95;100.00
19023;BME280;35226;48.606;8.858;2022-12-18T11:55:00;97269.81;;;-3.90;100.00
19023;BME280;35226;48.606;8.858;2022-12-18T12:05:24;97276.75;;;-3.80;100.00
19023;BME280;35226;48.606;8.858;2022-12-18T12:16:23;97248.47;;;-3.53;100.00
19023;BME280;35226;48.606;8.858;2022-12-18T12:30:16;97236.50;;;-3.44;100.00
19023;BME280;35226;48.606;8.858;2022-12-18T12:38:41;97255.41;;;-3.44;100.00
19023;BME280;35226;48.606;8.858;2022-12-18T12:41:12;97253.03;;;-3.45;100.00
19023;BME280;35226;48.606;8.858;2022-12-18T12:44:01;97259.22;;;-3.45;100.00
19023;BME280;35226;48.606;8.858;2022-12-18T12:46:31;97253.94;;;-3.41;100.00
19023;BME280;35226;48.606;8.858;2022-12-18T12:49:02;97253.75;;;-3.36;100.00
19023;BME280;35226;48.606;8.858;2022-12-18T12:51:35;97249.38;;;-3.28;100.00
19023;BME280;35226;48.606;8.858;2022-12-18T12:54:03;97253.75;;;-3.36;100.00
19023;BME280;35226;48.606;8.858;2022-12-18T12:56:42;97258.59;;;-3.29;100.00
19023;BME280;35226;48.606;8.858;2022-12-18T13:07:29;97271.88;;;-3.37;100.00
19023;BME280;35226;48.606;8.858;2022-12-18T13:13:02;97265.53;;;-3.20;100.00
19023;BME280;35226;48.606;8.858;2022-12-18T13:23:32;97252.81;;;-3.19;100.00
19023;BME280;35226;48.606;8.858;2022-12-18T13:33:47;97257.41;;;-3.20;100.00
19023;BME280;35226;48.606;8.858;2022-12-18T13:36:33;97256.84;;;-3.25;100.00
19023;BME280;35226;48.606;8.858;2022-12-18T13:42:30;97247.00;;;-3.30;100.00
19023;BME280;35226;48.606;8.858;2022-12-18T13:44:36;97247.09;;;-3.39;100.00
19023;BME280;35226;48.606;8.858;2022-12-18T13:47:26;97254.53;;;-3.36;100.00
19023;BME280;35226;48.606;8.858;2022-12-18T13:49:53;97254.22;;;-3.34;100.00
19023;BME280;35226;48.606;8.858;2022-12-18T13:52:26;97245.91;;;-3.29;100.00
19023;BME280;35226;48.606;8.858;2022-12-18T13:54:57;97249.94;;;-3.35;100.00
19023;BME280;35226;48.606;8.858;2022-12-18T13:57:29;97243.72;;;-3.36;100.00
19023;BME280;35226;48.606;8.858;2022-12-18T13:59:56;97253.41;;;-3.34;100.00
19023;BME280;35226;48.606;8.858;2022-12-18T14:02:24;97251.03;;;-3.36;100.00
19023;BME280;35226;48.606;8.858;2022-12-18T14:04:51;97249.13;;;-3.36;100.00
19023;BME280;35226;48.606;8.858;2022-12-18T14:07:28;97245.56;;;-3.48;100.00
19023;BME280;35226;48.606;8.858;2022-12-18T14:09:55;97253.66;;;-3.48;100.00
19023;BME280;35226;48.606;8.858;2022-12-18T14:12:28;97245.00;;;-3.54;100.00
19023;BME280;35226;48.606;8.858;2022-12-18T14:15:44;97250.25;;;-3.57;100.00
19023;BME280;35226;48.606;8.858;2022-12-18T14:18:29;97255.31;;;-3.56;100.00
19023;BME280;35226;48.606;8.858;2022-12-18T14:21:00;97246.75;;;-3.58;100.00
19023;BME280;35226;48.606;8.858;2022-12-18T14:23:38;97254.06;;;-3.58;100.00
19023;BME280;35226;48.606;8.858;2022-12-18T14:26:25;97251.50;;;-3.55;100.00
19023;BME280;35226;48.606;8.858;2022-12-18T14:28:55;97252.81;;;-3.61;100.00
19023;BME280;35226;48.606;8.858;2022-12-18T14:31:26;97252.81;;;-3.61;100.00
19023;BME280;35226;48.606;8.858;2022-12-18T14:33:53;97255.09;;;-3.72;100.00
19023;BME280;35226;48.606;8.858;2022-12-18T14:36:22;97250.78;;;-3.64;100.00
19023;BME280;35226;48.606;8.858;2022-12-18T14:38:53;97252.44;;;-3.80;100.00
19023;BME280;35226;48.606;8.858;2022-12-18T14:41:20;97249.75;;;-3.80;100.00
19023;BME280;35226;48.606;8.858;2022-12-18T14:43:48;97250.75;;;-3.85;100.00
19023;BME280;35226;48.606;8.858;2022-12-18T14:46:42;97261.53;;;-3.85;100.00
19023;BME280;35226;48.606;8.858;2022-12-18T14:49:33;97258.06;;;-3.85;100.00
19023;BME280;35226;48.606;8.858;2022-12-18T14:52:04;97264.56;;;-3.86;100.00